INFORMACIÓN METAR y TAF
METAR FOR LIRF
ADDS - METARS form results

(2033 UTC 13 August 2022)
Data provider http://aviationweather.gov/metar/data/
 
METAR text: LIRF 132020Z 32007KT CAVOK 23/19 Q1011 NOSIG
Conditions at: LIRF (ROME/FIUMICINO , IT) observed 2020 UTC 13 August 2022
Temperature: 23.0°C (73°F)
Dewpoint: 19.0°C (66°F) [RH = 78%]
Pressure (altimeter): 29.85 inches Hg (1011.0 mb)
Winds: from the NW (320 degrees) at 8 MPH (7 knots; 3.6 m/s)
Visibility: 6 or more miles (10+ km)
Ceiling: ceiling and visibility are OK
Clouds: unknown
Weather: no significant weather observed at this time

METAR text: LIRF 131950Z 29007KT CAVOK 24/20 Q1011 NOSIG
Conditions at: LIRF (ROME/FIUMICINO , IT) observed 1950 UTC 13 August 2022
Temperature: 24.0°C (75°F)
Dewpoint: 20.0°C (68°F) [RH = 78%]
Pressure (altimeter): 29.85 inches Hg (1011.0 mb)
Winds: from the WNW (290 degrees) at 8 MPH (7 knots; 3.6 m/s)
Visibility: 6 or more miles (10+ km)
Ceiling: ceiling and visibility are OK
Clouds: unknown
Weather: no significant weather observed at this time

Forecast for: LIRF (ROME/FIUMICINO , IT)
Text: TAF LIRF 131700Z 1318/1424 32010KT 9999 FEW040
Forecast period: 1800 UTC 13 August 2022 to 0000 UTC 14 August 2022
Forecast type: FROM: standard forecast or significant change
Winds: from the NW (320 degrees) at 12 MPH (10 knots; 5.1 m/s)
Visibility: 6 or more miles (10+ km)
Ceiling: at least 12,000 feet AGL
Clouds: few clouds at 4000 feet AGL
Weather: no significant weather forecast for this period
Text: BECMG 1400/1402 02006KT
Forecast period: 0000 to 0900 UTC 14 August 2022
Forecast type: BECOMING: Conditions expected to become as follows by 0200 UTC 14 August 2022
Winds: from the NNE (20 degrees) at 7 MPH (6 knots; 3.1 m/s)
Visibility: 6 or more miles (10+ km)
Ceiling: at least 12,000 feet AGL
Clouds: few clouds at 4000 feet AGL
Weather: no significant weather forecast for this period
Text: BECMG 1409/1411 26010KT
Forecast period: 0900 to 1800 UTC 14 August 2022
Forecast type: BECOMING: Conditions expected to become as follows by 1100 UTC 14 August 2022
Winds: from the W (260 degrees) at 12 MPH (10 knots; 5.1 m/s)
Visibility: 6 or more miles (10+ km)
Ceiling: at least 12,000 feet AGL
Clouds: few clouds at 4000 feet AGL
Weather: no significant weather forecast for this period
Text: BECMG 1418/1420 VRB05KT
Forecast period: 1800 UTC 14 August 2022 to 0000 UTC 15 August 2022
Forecast type: BECOMING: Conditions expected to become as follows by 2000 UTC 14 August 2022
Winds: variable direction winds at 6 MPH (5 knots; 2.6 m/s)
Visibility: 6 or more miles (10+ km)
Ceiling: at least 12,000 feet AGL
Clouds: few clouds at 4000 feet AGL
Weather: no significant weather forecast for this period

 MAPA DE AEROPUERTO

 INFORMACIÓN DE PISTA